sensor_id;sensor_type;location;lat;lon;timestamp;temperature;humidity
2749;DHT22;1382;52.142;11.618;2023-05-03T00:01:51;13.50;40.30
2749;DHT22;1382;52.142;11.618;2023-05-03T00:04:18;13.50;40.30
2749;DHT22;1382;52.142;11.618;2023-05-03T00:06:45;13.40;40.30
2749;DHT22;1382;52.142;11.618;2023-05-03T00:09:12;13.40;40.30
2749;DHT22;1382;52.142;11.618;2023-05-03T00:11:39;13.40;40.20
2749;DHT22;1382;52.142;11.618;2023-05-03T00:14:05;13.40;40.30
2749;DHT22;1382;52.142;11.618;2023-05-03T00:16:33;13.40;40.40
2749;DHT22;1382;52.142;11.618;2023-05-03T00:19:00;13.30;40.50
2749;DHT22;1382;52.142;11.618;2023-05-03T00:21:27;13.30;40.50
2749;DHT22;1382;52.142;11.618;2023-05-03T00:23:54;13.20;40.50
2749;DHT22;1382;52.142;11.618;2023-05-03T00:26:20;13.20;40.40
2749;DHT22;1382;52.142;11.618;2023-05-03T00:28:47;13.20;40.50
2749;DHT22;1382;52.142;11.618;2023-05-03T00:31:14;13.20;40.50
2749;DHT22;1382;52.142;11.618;2023-05-03T00:33:42;13.10;40.40
2749;DHT22;1382;52.142;11.618;2023-05-03T00:36:09;13.10;40.40
2749;DHT22;1382;52.142;11.618;2023-05-03T00:38:36;13.10;40.40
2749;DHT22;1382;52.142;11.618;2023-05-03T00:41:03;13.10;40.40
2749;DHT22;1382;52.142;11.618;2023-05-03T00:43:30;13.00;40.30
2749;DHT22;1382;52.142;11.618;2023-05-03T00:45:58;13.00;40.40
2749;DHT22;1382;52.142;11.618;2023-05-03T00:48:42;13.00;40.40
2749;DHT22;1382;52.142;11.618;2023-05-03T00:51:11;12.90;40.30
2749;DHT22;1382;52.142;11.618;2023-05-03T00:53:39;12.80;40.30
2749;DHT22;1382;52.142;11.618;2023-05-03T00:56:06;12.80;40.20
2749;DHT22;1382;52.142;11.618;2023-05-03T00:58:34;12.80;40.20
2749;DHT22;1382;52.142;11.618;2023-05-03T01:01:01;12.70;40.10
2749;DHT22;1382;52.142;11.618;2023-05-03T01:03:28;12.70;40.10
2749;DHT22;1382;52.142;11.618;2023-05-03T01:06:02;12.60;39.90
2749;DHT22;1382;52.142;11.618;2023-05-03T01:08:37;12.60;40.10
2749;DHT22;1382;52.142;11.618;2023-05-03T01:11:10;12.50;39.90
2749;DHT22;1382;52.142;11.618;2023-05-03T01:13:44;12.50;40.00
2749;DHT22;1382;52.142;11.618;2023-05-03T01:16:20;12.50;40.00
2749;DHT22;1382;52.142;11.618;2023-05-03T01:18:51;12.40;39.90
2749;DHT22;1382;52.142;11.618;2023-05-03T01:21:22;12.30;40.00
2749;DHT22;1382;52.142;11.618;2023-05-03T01:23:56;12.30;40.10
2749;DHT22;1382;52.142;11.618;2023-05-03T01:26:24;12.20;40.00
2749;DHT22;1382;52.142;11.618;2023-05-03T01:28:51;12.20;40.10
2749;DHT22;1382;52.142;11.618;2023-05-03T01:31:22;12.20;40.20
2749;DHT22;1382;52.142;11.618;2023-05-03T01:34:12;12.10;40.10
2749;DHT22;1382;52.142;11.618;2023-05-03T01:36:42;12.10;40.10
2749;DHT22;1382;52.142;11.618;2023-05-03T01:39:11;12.00;40.20
2749;DHT22;1382;52.142;11.618;2023-05-03T01:41:42;11.90;40.10
2749;DHT22;1382;52.142;11.618;2023-05-03T01:44:09;11.90;40.20
2749;DHT22;1382;52.142;11.618;2023-05-03T01:46:41;11.80;40.10
2749;DHT22;1382;52.142;11.618;2023-05-03T01:49:08;11.80;40.20
2749;DHT22;1382;52.142;11.618;2023-05-03T01:51:35;11.80;40.20
2749;DHT22;1382;52.142;11.618;2023-05-03T01:54:01;11.70;40.20
2749;DHT22;1382;52.142;11.618;2023-05-03T01:56:28;11.70;40.20
2749;DHT22;1382;52.142;11.618;2023-05-03T01:58:57;11.60;40.20
2749;DHT22;1382;52.142;11.618;2023-05-03T02:01:23;11.60;40.40
2749;DHT22;1382;52.142;11.618;2023-05-03T02:03:50;11.50;40.30
2749;DHT22;1382;52.142;11.618;2023-05-03T02:06:17;11.50;40.40
2749;DHT22;1382;52.142;11.618;2023-05-03T02:08:43;11.40;40.20
2749;DHT22;1382;52.142;11.618;2023-05-03T02:11:10;11.40;40.20
2749;DHT22;1382;52.142;11.618;2023-05-03T02:13:37;11.30;40.10
2749;DHT22;1382;52.142;11.618;2023-05-03T02:16:05;11.30;40.10
2749;DHT22;1382;52.142;11.618;2023-05-03T02:18:32;11.20;40.10
2749;DHT22;1382;52.142;11.618;2023-05-03T02:20:59;11.20;40.20
2749;DHT22;1382;52.142;11.618;2023-05-03T02:23:25;11.10;40.20
2749;DHT22;1382;52.142;11.618;2023-05-03T02:25:52;11.00;40.20
2749;DHT22;1382;52.142;11.618;2023-05-03T02:28:19;11.00;40.30
2749;DHT22;1382;52.142;11.618;2023-05-03T02:30:45;11.00;40.30
2749;DHT22;1382;52.142;11.618;2023-05-03T02:33:13;10.90;40.20
2749;DHT22;1382;52.142;11.618;2023-05-03T02:35:40;10.90;40.30
2749;DHT22;1382;52.142;11.618;2023-05-03T02:38:07;10.80;40.20
2749;DHT22;1382;52.142;11.618;2023-05-03T02:40:33;10.80;40.30
2749;DHT22;1382;52.142;11.618;2023-05-03T02:43:00;10.70;40.30
2749;DHT22;1382;52.142;11.618;2023-05-03T02:45:27;10.70;40.30
2749;DHT22;1382;52.142;11.618;2023-05-03T02:47:53;10.60;40.30
2749;DHT22;1382;52.142;11.618;2023-05-03T02:50:22;10.60;40.30
2749;DHT22;1382;52.142;11.618;2023-05-03T02:52:48;10.60;40.40
2749;DHT22;1382;52.142;11.618;2023-05-03T02:55:15;10.50;40.30
2749;DHT22;1382;52.142;11.618;2023-05-03T02:57:42;10.50;40.40
2749;DHT22;1382;52.142;11.618;2023-05-03T03:00:10;10.40;40.20
2749;DHT22;1382;52.142;11.618;2023-05-03T03:02:37;10.30;40.20
2749;DHT22;1382;52.142;11.618;2023-05-03T03:05:04;10.30;40.20
2749;DHT22;1382;52.142;11.618;2023-05-03T03:07:32;10.20;40.20
2749;DHT22;1382;52.142;11.618;2023-05-03T03:09:59;10.20;40.30
2749;DHT22;1382;52.142;11.618;2023-05-03T03:12:28;10.20;40.20
2749;DHT22;1382;52.142;11.618;2023-05-03T03:14:55;10.10;40.30
2749;DHT22;1382;52.142;11.618;2023-05-03T03:17:22;10.10;40.40
2749;DHT22;1382;52.142;11.618;2023-05-03T03:19:48;10.10;40.40
2749;DHT22;1382;52.142;11.618;2023-05-03T03:22:15;10.00;40.40
2749;DHT22;1382;52.142;11.618;2023-05-03T03:24:43;10.00;40.40
2749;DHT22;1382;52.142;11.618;2023-05-03T03:27:10;9.90;41.30
2749;DHT22;1382;52.142;11.618;2023-05-03T03:29:36;9.90;41.30
2749;DHT22;1382;52.142;11.618;2023-05-03T03:32:03;9.80;41.30
2749;DHT22;1382;52.142;11.618;2023-05-03T03:34:30;9.80;41.20
2749;DHT22;1382;52.142;11.618;2023-05-03T03:36:57;9.70;41.30
2749;DHT22;1382;52.142;11.618;2023-05-03T03:39:24;9.70;42.10
2749;DHT22;1382;52.142;11.618;2023-05-03T03:41:52;9.60;41.40
2749;DHT22;1382;52.142;11.618;2023-05-03T03:44:18;9.60;41.30
2749;DHT22;1382;52.142;11.618;2023-05-03T03:46:45;9.60;41.30
2749;DHT22;1382;52.142;11.618;2023-05-03T03:49:12;9.50;42.00
2749;DHT22;1382;52.142;11.618;2023-05-03T03:51:38;9.50;41.40
2749;DHT22;1382;52.142;11.618;2023-05-03T03:54:05;9.50;41.40
2749;DHT22;1382;52.142;11.618;2023-05-03T03:56:32;9.40;41.40
2749;DHT22;1382;52.142;11.618;2023-05-03T03:59:00;9.40;41.40
2749;DHT22;1382;52.142;11.618;2023-05-03T04:01:26;9.40;41.40
2749;DHT22;1382;52.142;11.618;2023-05-03T04:03:53;9.30;41.30
2749;DHT22;1382;52.142;11.618;2023-05-03T04:06:20;9.30;41.40
2749;DHT22;1382;52.142;11.618;2023-05-03T04:08:47;9.30;42.10
2749;DHT22;1382;52.142;11.618;2023-05-03T04:11:13;9.30;41.50
2749;DHT22;1382;52.142;11.618;2023-05-03T04:13:40;9.20;41.50
2749;DHT22;1382;52.142;11.618;2023-05-03T04:16:08;9.20;41.60
2749;DHT22;1382;52.142;11.618;2023-05-03T04:18:35;9.20;41.50
2749;DHT22;1382;52.142;11.618;2023-05-03T04:21:02;9.10;41.40
2749;DHT22;1382;52.142;11.618;2023-05-03T04:23:29;9.10;41.50
2749;DHT22;1382;52.142;11.618;2023-05-03T04:25:56;9.10;41.60
2749;DHT22;1382;52.142;11.618;2023-05-03T04:28:22;9.00;41.50
2749;DHT22;1382;52.142;11.618;2023-05-03T04:30:49;9.00;41.50
2749;DHT22;1382;52.142;11.618;2023-05-03T04:33:17;9.00;41.50
2749;DHT22;1382;52.142;11.618;2023-05-03T04:35:47;9.00;41.50
2749;DHT22;1382;52.142;11.618;2023-05-03T04:38:14;9.00;41.50
2749;DHT22;1382;52.142;11.618;2023-05-03T04:40:41;9.00;41.70
2749;DHT22;1382;52.142;11.618;2023-05-03T04:43:07;9.00;41.80
2749;DHT22;1382;52.142;11.618;2023-05-03T04:45:34;8.90;41.70
2749;DHT22;1382;52.142;11.618;2023-05-03T04:48:01;8.90;41.60
2749;DHT22;1382;52.142;11.618;2023-05-03T04:50:29;8.90;41.90
2749;DHT22;1382;52.142;11.618;2023-05-03T04:52:56;8.90;41.90
2749;DHT22;1382;52.142;11.618;2023-05-03T04:55:22;8.90;41.80
2749;DHT22;1382;52.142;11.618;2023-05-03T04:57:49;8.90;41.80
2749;DHT22;1382;52.142;11.618;2023-05-03T05:00:16;8.90;42.00
2749;DHT22;1382;52.142;11.618;2023-05-03T05:02:43;8.90;42.40
2749;DHT22;1382;52.142;11.618;2023-05-03T05:05:10;8.90;42.50
2749;DHT22;1382;52.142;11.618;2023-05-03T05:07:38;8.90;43.00
2749;DHT22;1382;52.142;11.618;2023-05-03T05:10:06;8.90;43.20
2749;DHT22;1382;52.142;11.618;2023-05-03T05:12:33;8.90;43.20
2749;DHT22;1382;52.142;11.618;2023-05-03T05:14:59;9.00;44.00
2749;DHT22;1382;52.142;11.618;2023-05-03T05:17:26;9.00;44.20
2749;DHT22;1382;52.142;11.618;2023-05-03T05:19:53;9.00;44.00
2749;DHT22;1382;52.142;11.618;2023-05-03T05:22:34;9.10;44.40
2749;DHT22;1382;52.142;11.618;2023-05-03T05:25:02;9.00;45.10
2749;DHT22;1382;52.142;11.618;2023-05-03T05:27:29;9.00;44.60
2749;DHT22;1382;52.142;11.618;2023-05-03T05:29:55;9.00;45.30
2749;DHT22;1382;52.142;11.618;2023-05-03T05:32:22;9.10;46.00
2749;DHT22;1382;52.142;11.618;2023-05-03T05:34:53;9.10;45.80
2749;DHT22;1382;52.142;11.618;2023-05-03T05:37:24;9.20;46.60
2749;DHT22;1382;52.142;11.618;2023-05-03T05:39:51;9.30;47.20
2749;DHT22;1382;52.142;11.618;2023-05-03T05:42:19;9.40;48.20
2749;DHT22;1382;52.142;11.618;2023-05-03T05:44:46;9.40;47.90
2749;DHT22;1382;52.142;11.618;2023-05-03T05:47:13;9.50;48.10
2749;DHT22;1382;52.142;11.618;2023-05-03T05:49:40;9.60;48.70
2749;DHT22;1382;52.142;11.618;2023-05-03T05:52:07;9.70;48.10
2749;DHT22;1382;52.142;11.618;2023-05-03T05:54:33;9.80;47.70
2749;DHT22;1382;52.142;11.618;2023-05-03T05:57:00;10.00;46.30
2749;DHT22;1382;52.142;11.618;2023-05-03T05:59:28;10.10;46.30
2749;DHT22;1382;52.142;11.618;2023-05-03T06:01:55;10.20;46.80
2749;DHT22;1382;52.142;11.618;2023-05-03T06:04:21;10.40;46.70
2749;DHT22;1382;52.142;11.618;2023-05-03T06:06:48;10.50;46.10
2749;DHT22;1382;52.142;11.618;2023-05-03T06:09:15;10.70;46.40
2749;DHT22;1382;52.142;11.618;2023-05-03T06:11:50;10.90;46.40
2749;DHT22;1382;52.142;11.618;2023-05-03T06:17:53;11.20;45.90
2749;DHT22;1382;52.142;11.618;2023-05-03T06:20:20;11.40;45.70
2749;DHT22;1382;52.142;11.618;2023-05-03T06:22:47;11.50;45.80
2749;DHT22;1382;52.142;11.618;2023-05-03T06:25:13;11.70;44.70
2749;DHT22;1382;52.142;11.618;2023-05-03T06:27:43;11.90;44.80
2749;DHT22;1382;52.142;11.618;2023-05-03T06:30:10;12.10;45.00
2749;DHT22;1382;52.142;11.618;2023-05-03T06:32:38;12.30;44.70
2749;DHT22;1382;52.142;11.618;2023-05-03T06:35:07;12.50;44.80
2749;DHT22;1382;52.142;11.618;2023-05-03T06:37:34;12.60;44.20
2749;DHT22;1382;52.142;11.618;2023-05-03T06:40:01;13.00;44.60
2749;DHT22;1382;52.142;11.618;2023-05-03T06:42:28;13.00;44.30
2749;DHT22;1382;52.142;11.618;2023-05-03T06:45:28;13.20;44.20
2749;DHT22;1382;52.142;11.618;2023-05-03T06:47:55;13.50;43.80
2749;DHT22;1382;52.142;11.618;2023-05-03T06:50:24;13.60;44.10
2749;DHT22;1382;52.142;11.618;2023-05-03T06:52:51;13.70;43.60
2749;DHT22;1382;52.142;11.618;2023-05-03T06:55:18;13.90;43.50
2749;DHT22;1382;52.142;11.618;2023-05-03T06:57:44;14.00;43.50
2749;DHT22;1382;52.142;11.618;2023-05-03T07:00:12;14.10;43.20
2749;DHT22;1382;52.142;11.618;2023-05-03T07:02:39;14.30;43.10
2749;DHT22;1382;52.142;11.618;2023-05-03T07:05:10;14.50;42.90
2749;DHT22;1382;52.142;11.618;2023-05-03T07:07:40;14.60;42.40
2749;DHT22;1382;52.142;11.618;2023-05-03T07:10:08;14.80;42.20
2749;DHT22;1382;52.142;11.618;2023-05-03T07:12:35;14.90;42.20
2749;DHT22;1382;52.142;11.618;2023-05-03T07:15:05;15.00;41.90
2749;DHT22;1382;52.142;11.618;2023-05-03T07:17:33;15.20;41.70
2749;DHT22;1382;52.142;11.618;2023-05-03T07:20:00;15.30;41.00
2749;DHT22;1382;52.142;11.618;2023-05-03T07:22:27;15.40;41.70
2749;DHT22;1382;52.142;11.618;2023-05-03T07:24:55;15.60;41.60
2749;DHT22;1382;52.142;11.618;2023-05-03T07:27:22;15.90;41.60
2749;DHT22;1382;52.142;11.618;2023-05-03T07:29:52;16.00;41.20
2749;DHT22;1382;52.142;11.618;2023-05-03T07:32:19;16.00;40.90
2749;DHT22;1382;52.142;11.618;2023-05-03T07:34:46;16.10;40.30
2749;DHT22;1382;52.142;11.618;2023-05-03T07:37:13;16.20;38.70
2749;DHT22;1382;52.142;11.618;2023-05-03T07:39:40;16.30;37.90
2749;DHT22;1382;52.142;11.618;2023-05-03T07:42:11;16.50;38.60
2749;DHT22;1382;52.142;11.618;2023-05-03T07:44:38;16.50;38.20
2749;DHT22;1382;52.142;11.618;2023-05-03T07:47:05;16.50;39.10
2749;DHT22;1382;52.142;11.618;2023-05-03T07:49:32;16.50;39.00
2749;DHT22;1382;52.142;11.618;2023-05-03T07:51:58;16.60;38.90
2749;DHT22;1382;52.142;11.618;2023-05-03T07:54:25;16.70;39.00
2749;DHT22;1382;52.142;11.618;2023-05-03T07:56:52;16.70;37.80
2749;DHT22;1382;52.142;11.618;2023-05-03T07:59:22;16.70;38.20
2749;DHT22;1382;52.142;11.618;2023-05-03T08:01:49;16.70;38.20
2749;DHT22;1382;52.142;11.618;2023-05-03T08:04:17;16.80;37.80
2749;DHT22;1382;52.142;11.618;2023-05-03T08:06:44;16.70;37.20
2749;DHT22;1382;52.142;11.618;2023-05-03T08:09:11;16.70;38.00
2749;DHT22;1382;52.142;11.618;2023-05-03T08:11:38;16.70;37.10
2749;DHT22;1382;52.142;11.618;2023-05-03T08:14:08;16.70;37.30
2749;DHT22;1382;52.142;11.618;2023-05-03T08:16:36;16.70;37.30
2749;DHT22;1382;52.142;11.618;2023-05-03T08:19:03;16.60;36.50
2749;DHT22;1382;52.142;11.618;2023-05-03T08:21:29;16.60;36.30
2749;DHT22;1382;52.142;11.618;2023-05-03T08:23:56;16.50;37.30
2749;DHT22;1382;52.142;11.618;2023-05-03T08:26:23;16.60;37.70
2749;DHT22;1382;52.142;11.618;2023-05-03T08:28:51;16.60;38.40
2749;DHT22;1382;52.142;11.618;2023-05-03T08:31:19;16.60;37.80
2749;DHT22;1382;52.142;11.618;2023-05-03T08:33:47;16.60;37.30
2749;DHT22;1382;52.142;11.618;2023-05-03T08:36:18;16.70;37.10
2749;DHT22;1382;52.142;11.618;2023-05-03T08:38:45;16.70;37.10
2749;DHT22;1382;52.142;11.618;2023-05-03T08:41:24;16.80;37.60
2749;DHT22;1382;52.142;11.618;2023-05-03T08:43:53;16.90;36.90
2749;DHT22;1382;52.142;11.618;2023-05-03T08:46:20;16.90;37.60
2749;DHT22;1382;52.142;11.618;2023-05-03T08:48:50;17.00;36.60
2749;DHT22;1382;52.142;11.618;2023-05-03T08:51:18;16.90;35.90
2749;DHT22;1382;52.142;11.618;2023-05-03T08:53:45;16.90;36.20
2749;DHT22;1382;52.142;11.618;2023-05-03T08:56:19;17.00;37.80
2749;DHT22;1382;52.142;11.618;2023-05-03T08:58:49;17.00;37.40
2749;DHT22;1382;52.142;11.618;2023-05-03T09:01:16;17.10;36.90
2749;DHT22;1382;52.142;11.618;2023-05-03T09:03:50;17.10;36.10
2749;DHT22;1382;52.142;11.618;2023-05-03T09:06:22;17.20;37.50
2749;DHT22;1382;52.142;11.618;2023-05-03T09:08:49;17.30;38.90
2749;DHT22;1382;52.142;11.618;2023-05-03T09:11:19;17.40;39.50
2749;DHT22;1382;52.142;11.618;2023-05-03T09:13:46;17.40;40.10
2749;DHT22;1382;52.142;11.618;2023-05-03T09:16:21;17.50;39.70
2749;DHT22;1382;52.142;11.618;2023-05-03T09:19:03;17.50;37.90
2749;DHT22;1382;52.142;11.618;2023-05-03T09:21:30;17.60;38.10
2749;DHT22;1382;52.142;11.618;2023-05-03T09:23:57;17.60;38.50
2749;DHT22;1382;52.142;11.618;2023-05-03T09:26:28;17.70;37.40
2749;DHT22;1382;52.142;11.618;2023-05-03T09:28:57;17.90;38.40
2749;DHT22;1382;52.142;11.618;2023-05-03T09:31:25;18.00;37.40
2749;DHT22;1382;52.142;11.618;2023-05-03T09:33:51;18.10;38.50
2749;DHT22;1382;52.142;11.618;2023-05-03T09:36:20;18.20;35.80
2749;DHT22;1382;52.142;11.618;2023-05-03T09:38:47;18.30;35.50
2749;DHT22;1382;52.142;11.618;2023-05-03T09:41:14;18.30;36.60
2749;DHT22;1382;52.142;11.618;2023-05-03T09:43:48;18.40;39.00
2749;DHT22;1382;52.142;11.618;2023-05-03T09:46:15;18.70;37.00
2749;DHT22;1382;52.142;11.618;2023-05-03T09:48:42;18.80;37.00
2749;DHT22;1382;52.142;11.618;2023-05-03T09:51:10;18.90;36.30
2749;DHT22;1382;52.142;11.618;2023-05-03T09:53:39;19.00;38.40
2749;DHT22;1382;52.142;11.618;2023-05-03T09:56:07;19.10;36.10
2749;DHT22;1382;52.142;11.618;2023-05-03T09:58:35;19.20;37.90
2749;DHT22;1382;52.142;11.618;2023-05-03T10:01:01;19.30;37.70
2749;DHT22;1382;52.142;11.618;2023-05-03T10:03:33;19.30;34.10
2749;DHT22;1382;52.142;11.618;2023-05-03T10:06:02;19.30;34.30
2749;DHT22;1382;52.142;11.618;2023-05-03T10:08:33;19.30;34.80
2749;DHT22;1382;52.142;11.618;2023-05-03T10:11:03;19.50;36.50
2749;DHT22;1382;52.142;11.618;2023-05-03T10:13:30;19.60;35.50
2749;DHT22;1382;52.142;11.618;2023-05-03T10:16:00;19.70;35.90
2749;DHT22;1382;52.142;11.618;2023-05-03T10:18:30;19.90;34.50
2749;DHT22;1382;52.142;11.618;2023-05-03T10:21:01;20.00;34.00
2749;DHT22;1382;52.142;11.618;2023-05-03T10:23:30;20.10;33.80
2749;DHT22;1382;52.142;11.618;2023-05-03T10:26:15;20.20;37.70
2749;DHT22;1382;52.142;11.618;2023-05-03T10:28:42;20.40;36.00
2749;DHT22;1382;52.142;11.618;2023-05-03T10:31:43;20.40;37.90
2749;DHT22;1382;52.142;11.618;2023-05-03T10:34:21;20.50;35.10
2749;DHT22;1382;52.142;11.618;2023-05-03T10:36:49;20.50;38.00
2749;DHT22;1382;52.142;11.618;2023-05-03T10:39:16;20.60;35.90
2749;DHT22;1382;52.142;11.618;2023-05-03T10:41:44;20.70;35.40
2749;DHT22;1382;52.142;11.618;2023-05-03T10:44:27;20.80;34.80
2749;DHT22;1382;52.142;11.618;2023-05-03T10:46:54;20.80;33.60
2749;DHT22;1382;52.142;11.618;2023-05-03T10:49:22;20.80;34.80
2749;DHT22;1382;52.142;11.618;2023-05-03T10:51:49;21.00;37.80
2749;DHT22;1382;52.142;11.618;2023-05-03T10:54:16;21.20;38.00
2749;DHT22;1382;52.142;11.618;2023-05-03T10:56:52;21.10;34.10
2749;DHT22;1382;52.142;11.618;2023-05-03T10:59:20;21.30;33.60
2749;DHT22;1382;52.142;11.618;2023-05-03T11:01:49;21.30;35.80
2749;DHT22;1382;52.142;11.618;2023-05-03T11:07:06;21.60;32.10
2749;DHT22;1382;52.142;11.618;2023-05-03T11:09:33;21.50;33.00
2749;DHT22;1382;52.142;11.618;2023-05-03T11:12:05;21.50;36.40
2749;DHT22;1382;52.142;11.618;2023-05-03T11:14:32;21.60;37.00
2749;DHT22;1382;52.142;11.618;2023-05-03T11:16:59;21.70;38.90
2749;DHT22;1382;52.142;11.618;2023-05-03T11:19:27;21.90;36.30
2749;DHT22;1382;52.142;11.618;2023-05-03T11:21:53;22.00;33.60
2749;DHT22;1382;52.142;11.618;2023-05-03T11:24:20;22.00;32.30
2749;DHT22;1382;52.142;11.618;2023-05-03T11:26:47;22.10;33.30
2749;DHT22;1382;52.142;11.618;2023-05-03T11:29:15;22.10;34.50
2749;DHT22;1382;52.142;11.618;2023-05-03T11:31:42;22.30;37.20
2749;DHT22;1382;52.142;11.618;2023-05-03T11:34:09;22.40;34.40
2749;DHT22;1382;52.142;11.618;2023-05-03T11:36:57;22.50;38.40
2749;DHT22;1382;52.142;11.618;2023-05-03T11:39:24;22.60;38.90
2749;DHT22;1382;52.142;11.618;2023-05-03T11:42:02;22.70;38.70
2749;DHT22;1382;52.142;11.618;2023-05-03T11:44:31;22.90;37.90
2749;DHT22;1382;52.142;11.618;2023-05-03T11:46:57;23.10;38.90
2749;DHT22;1382;52.142;11.618;2023-05-03T11:49:24;23.10;39.60
2749;DHT22;1382;52.142;11.618;2023-05-03T11:51:51;23.20;38.90
2749;DHT22;1382;52.142;11.618;2023-05-03T11:54:20;23.30;38.90
2749;DHT22;1382;52.142;11.618;2023-05-03T11:56:54;23.40;37.60
2749;DHT22;1382;52.142;11.618;2023-05-03T11:59:34;23.60;38.40
2749;DHT22;1382;52.142;11.618;2023-05-03T12:02:01;23.60;38.00
2749;DHT22;1382;52.142;11.618;2023-05-03T12:04:29;23.70;38.60
2749;DHT22;1382;52.142;11.618;2023-05-03T12:06:56;23.80;37.30
2749;DHT22;1382;52.142;11.618;2023-05-03T12:09:24;23.90;37.10
2749;DHT22;1382;52.142;11.618;2023-05-03T12:11:53;24.10;37.30
2749;DHT22;1382;52.142;11.618;2023-05-03T12:14:21;24.10;35.20
2749;DHT22;1382;52.142;11.618;2023-05-03T12:16:51;24.20;33.40
2749;DHT22;1382;52.142;11.618;2023-05-03T12:19:25;24.30;36.70
2749;DHT22;1382;52.142;11.618;2023-05-03T12:21:53;24.40;33.10
2749;DHT22;1382;52.142;11.618;2023-05-03T12:24:39;24.50;30.30
2749;DHT22;1382;52.142;11.618;2023-05-03T12:27:06;24.30;30.80
2749;DHT22;1382;52.142;11.618;2023-05-03T12:29:34;24.30;31.80
2749;DHT22;1382;52.142;11.618;2023-05-03T12:32:03;24.40;36.60
2749;DHT22;1382;52.142;11.618;2023-05-03T12:34:30;24.50;37.00
2749;DHT22;1382;52.142;11.618;2023-05-03T12:37:02;24.60;35.80
2749;DHT22;1382;52.142;11.618;2023-05-03T12:39:32;24.60;31.10
2749;DHT22;1382;52.142;11.618;2023-05-03T12:41:59;24.60;29.70
2749;DHT22;1382;52.142;11.618;2023-05-03T12:44:29;24.60;30.80
2749;DHT22;1382;52.142;11.618;2023-05-03T12:47:00;24.70;31.70
2749;DHT22;1382;52.142;11.618;2023-05-03T12:49:29;24.80;33.00
2749;DHT22;1382;52.142;11.618;2023-05-03T12:51:56;24.80;34.00
2749;DHT22;1382;52.142;11.618;2023-05-03T12:54:42;24.80;30.00
2749;DHT22;1382;52.142;11.618;2023-05-03T12:57:14;24.70;30.70
2749;DHT22;1382;52.142;11.618;2023-05-03T12:59:43;24.70;29.90
2749;DHT22;1382;52.142;11.618;2023-05-03T13:02:19;24.70;28.70
2749;DHT22;1382;52.142;11.618;2023-05-03T13:05:07;24.70;33.10
2749;DHT22;1382;52.142;11.618;2023-05-03T13:07:46;24.70;31.00
2749;DHT22;1382;52.142;11.618;2023-05-03T13:10:13;24.70;33.80
2749;DHT22;1382;52.142;11.618;2023-05-03T13:12:44;24.80;34.10
2749;DHT22;1382;52.142;11.618;2023-05-03T13:15:11;24.90;32.50
2749;DHT22;1382;52.142;11.618;2023-05-03T13:17:37;25.00;34.00
2749;DHT22;1382;52.142;11.618;2023-05-03T13:20:07;25.10;33.30
2749;DHT22;1382;52.142;11.618;2023-05-03T13:22:34;25.10;28.50
2749;DHT22;1382;52.142;11.618;2023-05-03T13:25:01;25.10;28.70
2749;DHT22;1382;52.142;11.618;2023-05-03T13:27:29;25.00;29.60
2749;DHT22;1382;52.142;11.618;2023-05-03T13:29:56;25.10;29.40
2749;DHT22;1382;52.142;11.618;2023-05-03T13:32:22;25.00;29.80
2749;DHT22;1382;52.142;11.618;2023-05-03T13:34:49;25.10;32.50
2749;DHT22;1382;52.142;11.618;2023-05-03T13:37:17;25.20;33.50
2749;DHT22;1382;52.142;11.618;2023-05-03T13:39:44;25.40;34.50
2749;DHT22;1382;52.142;11.618;2023-05-03T13:42:11;25.40;35.40
2749;DHT22;1382;52.142;11.618;2023-05-03T13:44:38;25.50;35.00
2749;DHT22;1382;52.142;11.618;2023-05-03T13:47:05;25.60;34.30
2749;DHT22;1382;52.142;11.618;2023-05-03T13:49:32;25.70;31.90
2749;DHT22;1382;52.142;11.618;2023-05-03T13:51:58;25.80;30.30
2749;DHT22;1382;52.142;11.618;2023-05-03T13:54:26;25.80;31.30
2749;DHT22;1382;52.142;11.618;2023-05-03T13:56:55;25.80;30.50
2749;DHT22;1382;52.142;11.618;2023-05-03T13:59:22;26.00;32.00
2749;DHT22;1382;52.142;11.618;2023-05-03T14:01:50;25.90;28.90
2749;DHT22;1382;52.142;11.618;2023-05-03T14:04:17;25.80;27.70
2749;DHT22;1382;52.142;11.618;2023-05-03T14:06:43;25.70;28.70
2749;DHT22;1382;52.142;11.618;2023-05-03T14:09:10;25.70;28.60
2749;DHT22;1382;52.142;11.618;2023-05-03T14:11:39;25.60;28.40
2749;DHT22;1382;52.142;11.618;2023-05-03T14:14:06;25.60;29.50
2749;DHT22;1382;52.142;11.618;2023-05-03T14:16:33;25.50;29.00
2749;DHT22;1382;52.142;11.618;2023-05-03T14:19:03;25.50;28.50
2749;DHT22;1382;52.142;11.618;2023-05-03T14:21:29;25.40;28.60
2749;DHT22;1382;52.142;11.618;2023-05-03T14:23:56;25.30;27.10
2749;DHT22;1382;52.142;11.618;2023-05-03T14:26:23;25.20;29.60
2749;DHT22;1382;52.142;11.618;2023-05-03T14:28:51;25.20;30.90
2749;DHT22;1382;52.142;11.618;2023-05-03T14:31:18;25.40;31.40
2749;DHT22;1382;52.142;11.618;2023-05-03T14:33:45;25.50;30.90
2749;DHT22;1382;52.142;11.618;2023-05-03T14:36:11;25.50;31.50
2749;DHT22;1382;52.142;11.618;2023-05-03T14:38:38;25.60;32.20
2749;DHT22;1382;52.142;11.618;2023-05-03T14:41:05;25.70;32.40
2749;DHT22;1382;52.142;11.618;2023-05-03T14:43:32;25.80;30.00
2749;DHT22;1382;52.142;11.618;2023-05-03T14:46:00;25.90;32.00
2749;DHT22;1382;52.142;11.618;2023-05-03T14:48:27;25.90;31.20
2749;DHT22;1382;52.142;11.618;2023-05-03T14:50:53;26.00;31.90
2749;DHT22;1382;52.142;11.618;2023-05-03T14:53:20;26.00;31.20
2749;DHT22;1382;52.142;11.618;2023-05-03T14:55:47;26.20;31.60
2749;DHT22;1382;52.142;11.618;2023-05-03T14:58:14;26.20;30.90
2749;DHT22;1382;52.142;11.618;2023-05-03T15:00:41;26.30;31.00
2749;DHT22;1382;52.142;11.618;2023-05-03T15:03:10;26.30;31.40
2749;DHT22;1382;52.142;11.618;2023-05-03T15:05:44;26.40;31.10
2749;DHT22;1382;52.142;11.618;2023-05-03T15:08:13;26.50;30.70
2749;DHT22;1382;52.142;11.618;2023-05-03T15:10:40;26.50;30.00
2749;DHT22;1382;52.142;11.618;2023-05-03T15:13:07;26.50;31.00
2749;DHT22;1382;52.142;11.618;2023-05-03T15:15:35;26.60;30.70
2749;DHT22;1382;52.142;11.618;2023-05-03T15:18:01;26.60;30.40
2749;DHT22;1382;52.142;11.618;2023-05-03T15:20:30;26.70;30.70
2749;DHT22;1382;52.142;11.618;2023-05-03T15:22:57;26.70;30.40
2749;DHT22;1382;52.142;11.618;2023-05-03T15:25:24;26.70;30.80
2749;DHT22;1382;52.142;11.618;2023-05-03T15:27:51;26.80;30.80
2749;DHT22;1382;52.142;11.618;2023-05-03T15:30:18;26.80;29.30
2749;DHT22;1382;52.142;11.618;2023-05-03T15:32:44;26.90;30.00
2749;DHT22;1382;52.142;11.618;2023-05-03T15:35:11;26.90;31.00
2749;DHT22;1382;52.142;11.618;2023-05-03T15:37:39;27.00;31.10
2749;DHT22;1382;52.142;11.618;2023-05-03T15:40:08;27.00;29.70
2749;DHT22;1382;52.142;11.618;2023-05-03T15:42:35;27.00;30.00
2749;DHT22;1382;52.142;11.618;2023-05-03T15:45:02;27.00;30.70
2749;DHT22;1382;52.142;11.618;2023-05-03T15:47:29;27.10;30.00
2749;DHT22;1382;52.142;11.618;2023-05-03T15:49:56;27.20;29.70
2749;DHT22;1382;52.142;11.618;2023-05-03T15:52:23;27.20;30.10
2749;DHT22;1382;52.142;11.618;2023-05-03T15:54:51;27.20;30.00
2749;DHT22;1382;52.142;11.618;2023-05-03T15:57:18;27.20;30.60
2749;DHT22;1382;52.142;11.618;2023-05-03T15:59:45;27.30;30.50
2749;DHT22;1382;52.142;11.618;2023-05-03T16:02:11;27.30;30.10